createdAt,value
2023-02-06T00:29:44.961Z,0
2023-02-06T00:30:25.314Z,0
2023-02-06T00:31:05.988Z,0
2023-02-06T00:31:46.322Z,0
2023-02-06T00:32:26.894Z,0
2023-02-06T00:33:07.316Z,0
2023-02-06T00:33:47.798Z,0
2023-02-06T00:34:28.288Z,0
2023-02-06T00:35:08.764Z,0
2023-02-06T00:35:49.276Z,0
2023-02-06T00:36:29.786Z,0
2023-02-06T00:43:14.853Z,0
2023-02-06T00:43:55.358Z,0
2023-02-06T00:44:35.878Z,0
2023-02-06T00:45:16.580Z,0
2023-02-06T00:45:56.948Z,0
2023-02-06T00:46:37.430Z,0
2023-02-06T00:47:17.937Z,0
2023-02-06T00:47:58.422Z,0
2023-02-06T00:48:38.917Z,0
2023-02-06T00:49:19.398Z,0
2023-02-06T00:56:44.780Z,0
2023-02-06T00:57:25.258Z,0
2023-02-06T00:58:05.728Z,0
2023-02-06T00:58:46.218Z,0
2023-02-06T00:59:26.758Z,0
2023-02-06T01:00:07.242Z,0
2023-02-06T01:00:47.754Z,0
2023-02-06T01:01:28.238Z,0
2023-02-06T01:02:08.729Z,0
2023-02-06T01:02:49.252Z,0
2023-02-06T01:03:29.725Z,0
2023-02-06T01:10:14.585Z,0
2023-02-06T01:10:55.069Z,0
2023-02-06T01:11:35.584Z,0
2023-02-06T01:12:16.055Z,0
2023-02-06T01:12:56.568Z,0
2023-02-06T01:14:17.553Z,0
2023-02-06T01:14:58.037Z,0
2023-02-06T01:15:38.564Z,0
2023-02-06T01:16:19.121Z,0
2023-02-06T01:16:59.519Z,0
2023-02-06T01:23:44.499Z,0
2023-02-06T01:24:24.976Z,0
2023-02-06T01:25:05.476Z,0
2023-02-06T01:25:45.994Z,0
2023-02-06T01:26:26.455Z,0
2023-02-06T01:27:06.968Z,0
2023-02-06T01:27:47.490Z,0
2023-02-06T01:28:27.937Z,0
2023-02-06T01:29:08.489Z,0
2023-02-06T01:29:48.942Z,0
2023-02-06T01:30:29.518Z,0
2023-02-06T01:37:14.947Z,0
2023-02-06T01:37:55.447Z,0
2023-02-06T01:38:35.900Z,0
2023-02-06T01:39:16.404Z,0
2023-02-06T01:39:56.942Z,0
2023-02-06T01:40:37.381Z,0
2023-02-06T01:41:17.869Z,0
2023-02-06T01:41:58.348Z,0
2023-02-06T01:42:38.925Z,0
2023-02-06T01:43:19.418Z,0
2023-02-06T01:50:44.799Z,0
2023-02-06T01:51:25.300Z,0
2023-02-06T01:52:05.824Z,0
2023-02-06T01:52:46.352Z,0
2023-02-06T01:53:26.829Z,0
2023-02-06T01:54:07.351Z,0
2023-02-06T01:54:47.861Z,0
2023-02-06T01:55:28.341Z,0
2023-02-06T01:56:08.816Z,0
2023-02-06T01:57:29.793Z,0
2023-02-06T02:04:14.813Z,0
2023-02-06T02:04:55.305Z,0
2023-02-06T02:05:36.095Z,0
2023-02-06T02:06:16.259Z,0
2023-02-06T02:06:56.738Z,0
2023-02-06T02:07:37.263Z,0
2023-02-06T02:08:17.698Z,0
2023-02-06T02:08:58.508Z,0
2023-02-06T02:09:38.699Z,0
2023-02-06T02:10:19.239Z,0
2023-02-06T02:10:59.706Z,0
2023-02-06T02:17:44.623Z,0
2023-02-06T02:18:25.155Z,0
2023-02-06T02:19:05.675Z,0
2023-02-06T02:19:46.100Z,0
2023-02-06T02:20:26.572Z,0
2023-02-06T02:21:07.067Z,0
2023-02-06T02:21:47.532Z,0
2023-02-06T02:22:28.037Z,0
2023-02-06T02:23:08.536Z,0
2023-02-06T02:23:49.011Z,0
2023-02-06T02:24:31.739Z,0
2023-02-06T02:29:55.091Z,0
2023-02-06T02:30:35.625Z,0
2023-02-06T02:31:16.178Z,0
2023-02-06T02:31:56.575Z,0
2023-02-06T02:32:37.063Z,0
2023-02-06T02:33:17.534Z,0
2023-02-06T02:33:58.142Z,0
2023-02-06T02:34:38.528Z,0
2023-02-06T02:35:19.045Z,0
2023-02-06T02:35:59.543Z,0
2023-02-06T02:43:24.885Z,0
2023-02-06T02:44:05.420Z,0
2023-02-06T02:44:45.965Z,0
2023-02-06T02:45:26.463Z,0
2023-02-06T02:46:06.962Z,0
2023-02-06T02:46:47.398Z,0
2023-02-06T02:47:27.940Z,0
2023-02-06T02:48:08.792Z,0
2023-02-06T02:48:49.263Z,0
2023-02-06T02:56:14.854Z,0
2023-02-06T02:56:55.357Z,0
2023-02-06T02:57:35.884Z,0
2023-02-06T02:58:16.385Z,0
2023-02-06T02:58:56.905Z,0
2023-02-06T02:59:37.394Z,0
2023-02-06T03:00:17.859Z,0
2023-02-06T03:00:59.211Z,0
2023-02-06T03:01:39.598Z,0
2023-02-06T03:08:24.485Z,0
2023-02-06T03:09:04.985Z,0
2023-02-06T03:09:45.988Z,0
2023-02-06T03:10:26.002Z,0
2023-02-06T03:11:06.452Z,0
2023-02-06T03:11:47.008Z,0
2023-02-06T03:12:27.487Z,0
2023-02-06T03:13:08.051Z,0
2023-02-06T03:13:48.535Z,0
2023-02-06T03:14:28.975Z,0
2023-02-06T03:21:54.521Z,0
2023-02-06T03:22:35.037Z,0
2023-02-06T03:23:15.536Z,0
2023-02-06T03:23:56.039Z,0
2023-02-06T03:24:36.501Z,0
2023-02-06T03:25:17.041Z,0
2023-02-06T03:25:57.487Z,0
2023-02-06T03:26:37.969Z,0
2023-02-06T03:27:18.470Z,0
2023-02-06T03:27:58.966Z,0
2023-02-06T03:28:39.447Z,0
2023-02-06T03:36:04.758Z,0
2023-02-06T03:36:45.186Z,0
2023-02-06T03:37:25.662Z,0
2023-02-06T03:38:06.155Z,0
2023-02-06T03:38:46.656Z,0
2023-02-06T03:39:27.158Z,0
2023-02-06T03:40:07.650Z,0
2023-02-06T03:40:48.150Z,0
2023-02-06T03:41:28.676Z,0
2023-02-06T03:42:09.163Z,0
2023-02-06T03:42:49.660Z,0
2023-02-06T03:49:34.662Z,0
2023-02-06T03:50:15.157Z,0
2023-02-06T03:50:55.681Z,0
2023-02-06T03:51:36.159Z,0
2023-02-06T03:52:16.642Z,0
2023-02-06T03:52:57.156Z,0
2023-02-06T03:53:37.671Z,0
2023-02-06T03:54:18.159Z,0
2023-02-06T03:54:58.740Z,0
2023-02-06T03:55:39.168Z,0
2023-02-06T03:56:19.663Z,0
2023-02-06T04:03:04.873Z,0
2023-02-06T04:03:45.364Z,0
2023-02-06T04:04:25.864Z,0
2023-02-06T04:05:06.423Z,0
2023-02-06T04:05:46.962Z,0
2023-02-06T04:06:27.472Z,0
2023-02-06T04:07:08.012Z,0
2023-02-06T04:07:48.492Z,0
2023-02-06T04:08:28.984Z,0
2023-02-06T04:09:09.484Z,0
2023-02-06T04:16:34.840Z,0
2023-02-06T04:17:20.821Z,0
2023-02-06T04:18:01.219Z,0
2023-02-06T04:18:36.312Z,0
2023-02-06T04:19:16.821Z,0
2023-02-06T04:19:57.343Z,0
2023-02-06T04:20:37.878Z,0
2023-02-06T04:21:18.326Z,0
2023-02-06T04:21:58.809Z,0
2023-02-06T04:22:39.323Z,0
2023-02-06T04:30:04.674Z,0
2023-02-06T04:30:45.276Z,0
2023-02-06T04:31:25.717Z,0
2023-02-06T04:32:06.206Z,0
2023-02-06T04:32:46.715Z,0
2023-02-06T04:33:27.160Z,0
2023-02-06T04:34:07.685Z,0
2023-02-06T04:34:48.156Z,0
2023-02-06T04:35:28.675Z,0
2023-02-06T04:36:09.207Z,0
2023-02-06T04:36:49.650Z,0
2023-02-06T04:43:34.864Z,0
2023-02-06T04:44:15.343Z,0
2023-02-06T04:44:55.826Z,0
2023-02-06T04:45:36.626Z,0
2023-02-06T04:46:16.879Z,0
2023-02-06T04:46:57.323Z,0
2023-02-06T04:47:37.874Z,0
2023-02-06T04:48:58.886Z,0
2023-02-06T04:49:39.334Z,0
2023-02-06T04:50:19.820Z,0
2023-02-06T04:57:04.881Z,0
2023-02-06T04:57:45.283Z,0
2023-02-06T04:58:25.817Z,0
2023-02-06T04:59:06.333Z,0
2023-02-06T04:59:46.802Z,0
2023-02-06T05:00:27.400Z,0
2023-02-06T05:01:07.909Z,0
2023-02-06T05:01:48.557Z,0
2023-02-06T05:02:28.901Z,0
2023-02-06T05:03:09.475Z,0
2023-02-06T05:09:54.521Z,0
2023-02-06T05:10:35.023Z,0
2023-02-06T05:11:15.538Z,0
2023-02-06T05:11:56.017Z,0
2023-02-06T05:12:36.533Z,0
2023-02-06T05:13:57.569Z,0
2023-02-06T05:14:38.062Z,0
2023-02-06T05:15:18.632Z,0
2023-02-06T05:20:04.785Z,0
2023-02-06T05:20:45.405Z,0
2023-02-06T05:21:26.042Z,0
2023-02-06T05:22:06.767Z,0
2023-02-06T05:22:47.358Z,0
2023-02-06T05:23:27.814Z,0
2023-02-06T05:24:08.295Z,0
2023-02-06T05:24:48.947Z,0
2023-02-06T05:25:29.345Z,0
2023-02-06T05:32:14.662Z,0
2023-02-06T05:32:55.142Z,0
2023-02-06T05:33:35.633Z,0
2023-02-06T05:34:16.175Z,0
2023-02-06T05:34:56.686Z,0
2023-02-06T05:35:37.657Z,0
2023-02-06T05:38:51.954Z,0
2023-02-06T05:39:32.479Z,0
2023-02-06T05:40:12.949Z,0
2023-02-06T05:40:53.433Z,0
2023-02-06T05:41:33.923Z,0
2023-02-06T05:42:14.415Z,0
2023-02-06T05:42:54.868Z,0
2023-02-06T05:43:35.415Z,0
2023-02-06T05:44:15.874Z,0
2023-02-06T05:44:56.489Z,0
2023-02-06T05:51:01.230Z,0
2023-02-06T05:51:41.736Z,0
2023-02-06T06:32:22.770Z,0
2023-02-06T06:33:03.292Z,0
2023-02-06T06:33:43.942Z,0
2023-02-06T06:34:24.591Z,0
2023-02-06T06:35:05.146Z,0
2023-02-06T06:35:45.655Z,0
2023-02-06T06:36:26.173Z,0
2023-02-06T06:37:06.675Z,0
2023-02-06T06:37:47.224Z,0
2023-02-06T06:38:27.831Z,0
2023-02-06T06:45:29.987Z,4
2023-02-06T06:46:10.506Z,4
2023-02-06T06:46:51.224Z,4
2023-02-06T06:47:31.569Z,4
2023-02-06T06:48:13.179Z,0
2023-02-06T06:48:53.564Z,0
2023-02-06T06:49:34.503Z,4
2023-02-06T06:52:25.211Z,4
2023-02-06T06:53:00.737Z,4
2023-02-06T06:53:41.358Z,4
2023-02-06T06:54:21.918Z,8
2023-02-06T06:55:02.572Z,8
2023-02-06T06:55:43.030Z,4
2023-02-06T06:56:23.663Z,4
2023-02-06T06:57:04.298Z,4
2023-02-06T06:57:44.752Z,8
2023-02-06T06:59:12.530Z,8
2023-02-06T06:59:52.980Z,8
2023-02-06T07:00:33.581Z,12
2023-02-06T07:01:14.133Z,8
2023-02-06T07:01:54.620Z,12
2023-02-06T07:09:54.280Z,20
2023-02-06T07:10:35.063Z,20
2023-02-06T07:11:15.539Z,20
2023-02-06T07:11:56.187Z,20
2023-02-06T07:12:37.791Z,20
2023-02-06T07:13:24.715Z,20
2023-02-06T07:14:05.402Z,20
2023-02-06T07:14:46.016Z,20
2023-02-06T07:15:27.686Z,20
2023-02-06T07:19:33.127Z,36
2023-02-06T07:20:13.602Z,36
2023-02-06T07:20:54.756Z,32
2023-02-06T07:21:38.175Z,32
2023-02-06T07:26:15.129Z,40
2023-02-06T07:26:55.689Z,44
2023-02-06T07:27:36.310Z,44
2023-02-06T07:28:16.910Z,52
2023-02-06T07:28:57.796Z,52
2023-02-06T07:29:38.441Z,56
2023-02-06T07:33:44.376Z,72
2023-02-06T07:34:25.672Z,76
2023-02-06T07:35:06.125Z,72
2023-02-06T07:35:47.074Z,76
2023-02-06T07:36:29.394Z,80
2023-02-06T07:37:17.079Z,88
2023-02-06T07:37:58.409Z,88
2023-02-06T07:38:40.488Z,96
2023-02-06T07:41:24.753Z,104
2023-02-06T07:43:37.875Z,116
2023-02-06T07:44:18.695Z,116
2023-02-06T07:44:59.374Z,120
2023-02-06T07:45:40.124Z,120
2023-02-06T07:46:21.522Z,128
2023-02-06T07:49:57.038Z,136
2023-02-06T07:50:37.546Z,140
2023-02-06T07:54:20.739Z,148
2023-02-06T07:55:00.351Z,160
2023-02-06T07:55:42.510Z,160
2023-02-06T07:56:23.909Z,164
2023-02-06T07:58:27.855Z,164
2023-02-06T07:59:08.963Z,164
2023-02-06T07:59:50.183Z,168
2023-02-06T08:00:32.291Z,180
2023-02-06T08:05:33.983Z,160
2023-02-06T08:06:13.910Z,160
2023-02-06T08:06:54.570Z,172
2023-02-06T08:07:35.026Z,180
2023-02-06T08:08:15.639Z,188
2023-02-06T08:08:57.960Z,208
2023-02-06T08:11:45.615Z,200
2023-02-06T08:12:26.320Z,192
2023-02-06T08:13:07.538Z,188
2023-02-06T08:16:32.514Z,204
2023-02-06T08:19:46.168Z,192
2023-02-06T08:20:26.916Z,180
2023-02-06T08:21:07.639Z,208
2023-02-06T08:21:50.289Z,224
2023-02-06T08:22:31.811Z,248
2023-02-06T08:27:51.353Z,264
2023-02-06T08:28:32.930Z,272
2023-02-06T08:29:14.227Z,284
2023-02-06T08:29:55.747Z,300
2023-02-06T08:30:38.325Z,320
2023-02-06T08:32:41.163Z,360
2023-02-06T08:33:22.120Z,408
2023-02-06T08:34:02.840Z,404
2023-02-06T08:34:44.385Z,396
2023-02-06T08:35:25.073Z,360
2023-02-06T08:39:27.491Z,292
2023-02-06T08:42:46.510Z,424
2023-02-06T08:43:27.256Z,420
2023-02-06T08:44:08.096Z,400
2023-02-06T08:44:48.929Z,348
2023-02-06T08:45:29.556Z,308
2023-02-06T08:46:10.125Z,280
2023-02-06T08:46:54.233Z,268
2023-02-06T08:50:12.523Z,460
2023-02-06T08:50:56.169Z,484
2023-02-06T08:51:36.734Z,444
2023-02-06T08:52:17.418Z,400
2023-02-06T08:56:18.168Z,368
2023-02-06T08:56:57.643Z,352
2023-02-06T08:57:39.339Z,336
2023-02-06T08:58:19.879Z,332
2023-02-06T09:00:33.286Z,348
2023-02-06T09:01:13.959Z,360
2023-02-06T09:01:54.446Z,368
2023-02-06T09:02:35.202Z,384
2023-02-06T09:03:15.618Z,416
2023-02-06T09:03:56.168Z,444
2023-02-06T09:04:36.670Z,420
2023-02-06T09:05:17.267Z,400
2023-02-06T09:06:05.527Z,376
2023-02-06T09:10:03.405Z,392
2023-02-06T09:10:44.901Z,372
2023-02-06T09:11:25.619Z,380
2023-02-06T09:12:05.984Z,372
2023-02-06T09:12:47.320Z,368
2023-02-06T09:13:27.771Z,352
2023-02-06T09:20:19.744Z,392
2023-02-06T09:21:00.121Z,484
2023-02-06T09:21:40.644Z,560
2023-02-06T09:22:21.179Z,564
2023-02-06T09:23:42.998Z,448
2023-02-06T09:24:23.557Z,412
2023-02-06T09:25:04.050Z,400
2023-02-06T09:31:49.461Z,368
2023-02-06T09:32:30.119Z,396
2023-02-06T09:34:59.544Z,496
2023-02-06T09:37:12.468Z,564
2023-02-06T09:37:52.930Z,560
2023-02-06T09:38:33.581Z,548
2023-02-06T09:39:14.102Z,532
2023-02-06T09:39:55.541Z,532
2023-02-06T09:40:36.161Z,496
2023-02-06T09:41:16.649Z,464
2023-02-06T09:41:57.604Z,432
2023-02-06T09:46:28.654Z,312
2023-02-06T09:47:08.939Z,316
2023-02-06T09:47:49.499Z,324
2023-02-06T09:48:30.052Z,324
2023-02-06T09:49:12.172Z,328
2023-02-06T09:49:52.748Z,336
2023-02-06T09:55:58.197Z,436
2023-02-06T09:56:39.576Z,416
2023-02-06T09:57:20.121Z,372
2023-02-06T09:58:00.707Z,336
2023-02-06T09:58:41.199Z,328
2023-02-06T09:59:21.836Z,328
2023-02-06T10:04:48.159Z,520
2023-02-06T10:08:07.296Z,620
2023-02-06T10:08:50.532Z,612
2023-02-06T10:13:36.429Z,492
2023-02-06T10:14:17.017Z,480
2023-02-06T10:14:57.623Z,480
2023-02-06T10:18:36.926Z,652
2023-02-06T10:19:19.526Z,764
2023-02-06T10:20:00.622Z,940
2023-02-06T10:20:41.568Z,1116
2023-02-06T10:21:22.119Z,1196
2023-02-06T10:26:22.903Z,1084
2023-02-06T10:27:03.278Z,996
2023-02-06T10:27:44.080Z,892
2023-02-06T10:28:24.438Z,820
2023-02-06T10:29:05.093Z,772
2023-02-06T10:29:45.598Z,716
2023-02-06T10:30:26.126Z,668
2023-02-06T10:31:06.802Z,652
2023-02-06T10:31:47.356Z,644
2023-02-06T10:37:52.539Z,696
2023-02-06T10:38:33.135Z,756
2023-02-06T10:39:13.644Z,800
2023-02-06T10:39:54.276Z,828
2023-02-06T10:40:34.870Z,852
2023-02-06T10:41:15.411Z,880
2023-02-06T10:41:55.972Z,976
2023-02-06T10:42:36.991Z,1052
2023-02-06T10:43:17.489Z,1312
2023-02-06T10:47:22.570Z,904
2023-02-06T10:48:03.127Z,940
2023-02-06T10:48:43.681Z,980
2023-02-06T10:51:58.360Z,832
2023-02-06T10:55:27.799Z,1028
2023-02-06T10:56:08.323Z,1168
2023-02-06T10:56:48.868Z,1256
2023-02-06T10:57:29.464Z,1252
2023-02-06T10:58:10.042Z,1148
2023-02-06T10:58:50.557Z,952
2023-02-06T10:59:31.234Z,944
2023-02-06T11:00:11.757Z,1024
2023-02-06T11:00:52.250Z,992
2023-02-06T11:05:37.783Z,904
2023-02-06T11:06:18.075Z,912
2023-02-06T11:06:58.625Z,932
2023-02-06T11:07:39.234Z,980
2023-02-06T11:08:19.865Z,1092
2023-02-06T11:09:00.362Z,1244
2023-02-06T11:09:40.814Z,1260
2023-02-06T11:10:21.522Z,1340
2023-02-06T11:11:02.116Z,1396
2023-02-06T11:15:07.417Z,1292
2023-02-06T11:18:23.116Z,968
2023-02-06T11:19:04.171Z,888
2023-02-06T11:19:45.183Z,952
2023-02-06T11:20:26.277Z,1016
2023-02-06T11:23:52.264Z,1096
2023-02-06T11:24:33.835Z,1004
2023-02-06T11:25:14.828Z,960
2023-02-06T11:25:55.998Z,972
2023-02-06T11:26:36.993Z,896
2023-02-06T11:28:42.091Z,748
2023-02-06T11:29:23.651Z,728
2023-02-06T11:30:04.806Z,744
2023-02-06T11:30:48.446Z,816
2023-02-06T11:35:01.712Z,1176
2023-02-06T11:35:41.443Z,1296
2023-02-06T11:36:22.820Z,1280
2023-02-06T11:37:03.367Z,1236
2023-02-06T11:39:37.835Z,1000
2023-02-06T11:45:11.552Z,1092
2023-02-06T11:45:52.332Z,1192
2023-02-06T11:46:32.954Z,1036
2023-02-06T11:47:13.546Z,988
2023-02-06T11:47:54.193Z,964
2023-02-06T11:48:34.854Z,932
2023-02-06T11:49:15.770Z,1012
2023-02-06T11:49:56.401Z,1016
2023-02-06T12:32:31.231Z,864
2023-02-06T12:33:11.700Z,1132
2023-02-06T12:33:55.105Z,1144
2023-02-06T12:34:33.600Z,1120
2023-02-06T12:35:14.769Z,940
2023-02-06T12:38:51.103Z,736
2023-02-06T12:39:31.307Z,736
2023-02-06T12:40:11.935Z,772
2023-02-06T12:40:52.488Z,932
2023-02-06T12:41:33.066Z,948
2023-02-06T12:42:13.625Z,828
2023-02-06T12:42:54.273Z,848
2023-02-06T12:43:34.839Z,1060
2023-02-06T12:44:15.403Z,1132
2023-02-06T12:49:49.239Z,856
2023-02-06T12:50:30.319Z,792
2023-02-06T12:51:11.944Z,796
2023-02-06T12:54:51.232Z,788
2023-02-06T12:58:29.595Z,680
2023-02-06T12:59:10.141Z,672
2023-02-06T12:59:57.783Z,668
2023-02-06T13:03:07.289Z,632
2023-02-06T13:06:42.906Z,652
2023-02-06T13:07:23.132Z,660
2023-02-06T13:08:03.685Z,628
2023-02-06T13:08:44.216Z,636
2023-02-06T13:09:24.761Z,780
2023-02-06T13:10:06.119Z,724
2023-02-06T13:10:48.546Z,836
2023-02-06T13:14:52.472Z,1072
2023-02-06T13:15:33.090Z,1012
2023-02-06T13:16:13.717Z,1156
2023-02-06T13:16:54.348Z,1120
2023-02-06T13:17:34.813Z,1200
2023-02-06T13:18:15.958Z,1196
2023-02-06T13:18:56.451Z,1124
2023-02-06T13:19:36.974Z,1076
2023-02-06T13:20:17.610Z,988
2023-02-06T13:24:37.765Z,820
2023-02-06T13:25:19.308Z,836
2023-02-06T13:25:58.891Z,816
2023-02-06T13:26:39.536Z,828
2023-02-06T13:27:20.063Z,828
2023-02-06T13:28:00.765Z,796
2023-02-06T13:33:57.346Z,736
2023-02-06T13:34:37.551Z,716
2023-02-06T13:35:18.210Z,736
2023-02-06T13:35:58.874Z,712
2023-02-06T13:36:39.504Z,692
2023-02-06T13:37:20.073Z,688
2023-02-06T13:38:00.767Z,708
2023-02-06T13:38:41.418Z,692
2023-02-06T13:44:06.887Z,628
2023-02-06T13:44:47.371Z,616
2023-02-06T13:46:48.414Z,568
2023-02-06T13:47:29.141Z,592
2023-02-06T13:48:09.667Z,604
2023-02-06T13:48:50.192Z,648
2023-02-06T13:49:30.906Z,656
2023-02-06T13:50:11.449Z,656
2023-02-06T13:50:51.951Z,664
2023-02-06T13:56:18.591Z,520
2023-02-06T13:56:59.311Z,488
2023-02-06T13:57:39.857Z,444
2023-02-06T13:58:20.534Z,444
2023-02-06T13:59:01.097Z,432
2023-02-06T13:59:41.782Z,412
2023-02-06T14:00:22.404Z,388
2023-02-06T14:01:03.163Z,372
2023-02-06T14:06:28.297Z,368
2023-02-06T14:07:08.975Z,400
2023-02-06T14:07:49.520Z,408
2023-02-06T14:08:30.208Z,376
2023-02-06T14:09:10.742Z,340
2023-02-06T14:09:51.168Z,356
2023-02-06T14:10:31.752Z,368
2023-02-06T14:11:12.313Z,380
2023-02-06T14:11:52.751Z,412
2023-02-06T14:17:58.353Z,356
2023-02-06T14:18:38.930Z,348
2023-02-06T14:19:19.605Z,348
2023-02-06T14:20:00.157Z,328
2023-02-06T14:20:40.652Z,324
2023-02-06T14:21:21.254Z,320
2023-02-06T14:22:01.814Z,300
2023-02-06T14:22:42.953Z,248
2023-02-06T14:26:47.936Z,484
2023-02-06T14:27:28.592Z,484
2023-02-06T14:28:09.219Z,480
2023-02-06T14:28:49.665Z,484
2023-02-06T14:29:30.268Z,496
2023-02-06T14:30:10.819Z,496
2023-02-06T14:30:51.488Z,500
2023-02-06T14:31:32.146Z,508
2023-02-06T14:32:12.611Z,528
2023-02-06T14:32:53.082Z,536
2023-02-06T14:36:17.947Z,476
2023-02-06T14:36:59.646Z,472
2023-02-06T14:37:40.297Z,480
2023-02-06T14:38:20.866Z,476
2023-02-06T14:39:03.375Z,480
2023-02-06T14:39:42.108Z,472
2023-02-06T14:40:23.254Z,444
2023-02-06T14:45:08.347Z,376
2023-02-06T14:46:00.559Z,376
2023-02-06T14:46:30.043Z,380
2023-02-06T14:47:10.503Z,380
2023-02-06T14:47:51.039Z,376
2023-02-06T14:48:31.593Z,384
2023-02-06T14:49:12.180Z,392
2023-02-06T14:49:52.619Z,412
2023-02-06T14:50:33.163Z,424
2023-02-06T14:55:58.198Z,276
2023-02-06T14:56:38.685Z,244
2023-02-06T14:57:19.348Z,216
2023-02-06T14:57:59.837Z,200
2023-02-06T14:58:40.302Z,220
2023-02-06T14:59:20.932Z,232
2023-02-06T15:00:01.505Z,228
2023-02-06T15:00:42.025Z,220
2023-02-06T15:01:22.546Z,212
2023-02-06T15:02:03.035Z,196
2023-02-06T15:07:28.250Z,208
2023-02-06T15:08:08.793Z,204
2023-02-06T15:08:49.385Z,200
2023-02-06T15:09:29.953Z,200
2023-02-06T15:10:10.581Z,196
2023-02-06T15:10:51.151Z,188
2023-02-06T15:11:31.703Z,192
2023-02-06T15:12:12.271Z,212
2023-02-06T15:12:52.937Z,240
2023-02-06T15:18:57.938Z,180
2023-02-06T15:19:38.566Z,160
2023-02-06T15:20:19.017Z,156
2023-02-06T15:20:59.522Z,160
2023-02-06T15:21:40.120Z,160
2023-02-06T15:22:20.717Z,160
2023-02-06T15:23:15.484Z,156
2023-02-06T15:23:41.650Z,180
2023-02-06T15:24:22.249Z,204
2023-02-06T15:25:02.747Z,208
2023-02-06T15:25:43.266Z,192
2023-02-06T15:31:48.341Z,156
2023-02-06T15:35:17.422Z,188
2023-02-06T15:35:59.111Z,192
2023-02-06T15:36:39.492Z,188
2023-02-06T15:37:19.877Z,184
2023-02-06T15:38:00.402Z,180
2023-02-06T15:38:41.002Z,180
2023-02-06T15:39:21.778Z,172
2023-02-06T15:45:27.463Z,108
2023-02-06T15:46:07.885Z,104
2023-02-06T15:46:49.326Z,100
2023-02-06T15:47:28.780Z,96
2023-02-06T15:48:09.308Z,92
2023-02-06T15:48:49.911Z,92
2023-02-06T15:49:30.535Z,92
2023-02-06T15:52:44.583Z,100
2023-02-06T15:53:25.489Z,100
2023-02-06T15:54:05.895Z,96
2023-02-06T15:54:46.464Z,92
2023-02-06T15:55:26.999Z,92
2023-02-06T15:56:08.497Z,92
2023-02-06T15:56:49.038Z,88
2023-02-06T16:02:53.950Z,88
2023-02-06T16:03:34.438Z,88
2023-02-06T16:04:14.940Z,84
2023-02-06T16:04:55.429Z,76
2023-02-06T16:05:36.012Z,76
2023-02-06T16:06:16.429Z,72
2023-02-06T16:06:57.465Z,68
2023-02-06T16:07:38.013Z,64
2023-02-06T16:08:18.523Z,60
2023-02-06T16:08:59.031Z,52
2023-02-06T16:16:41.337Z,32
2023-02-06T16:17:21.727Z,32
2023-02-06T16:18:02.297Z,28
2023-02-06T16:18:42.799Z,28
2023-02-06T16:19:23.298Z,24
2023-02-06T16:20:03.818Z,24
2023-02-06T16:20:44.351Z,28
2023-02-06T16:21:24.857Z,20
2023-02-06T16:22:05.380Z,20
2023-02-06T16:28:51.248Z,12
2023-02-06T16:29:31.711Z,12
2023-02-06T16:30:12.245Z,12
2023-02-06T16:30:52.888Z,8
2023-02-06T16:31:33.459Z,8
2023-02-06T16:32:13.912Z,8
2023-02-06T16:32:55.417Z,8
2023-02-06T16:33:34.925Z,8
2023-02-06T16:34:15.498Z,8
2023-02-06T16:34:56.020Z,8
2023-02-06T16:40:37.735Z,4
2023-02-06T16:41:19.036Z,4
2023-02-06T16:41:59.396Z,4
2023-02-06T16:42:40.434Z,4
2023-02-06T16:43:21.461Z,4
2023-02-06T16:46:47.440Z,4
2023-02-06T16:47:29.302Z,4
2023-02-06T16:48:10.186Z,0
2023-02-06T16:48:51.188Z,0
2023-02-06T16:49:32.192Z,0
2023-02-06T16:52:57.536Z,0
2023-02-06T16:53:38.691Z,0
2023-02-06T16:54:19.775Z,0
2023-02-06T16:55:00.784Z,0
2023-02-06T16:55:41.816Z,0
2023-02-06T16:59:07.168Z,0
2023-02-06T16:59:48.204Z,0
2023-02-06T17:00:31.085Z,0
2023-02-06T17:01:10.294Z,0
2023-02-06T17:01:51.351Z,0
2023-02-06T17:05:57.425Z,0
2023-02-06T17:06:38.407Z,0
2023-02-06T17:07:19.449Z,0
2023-02-06T17:08:00.538Z,0
2023-02-06T17:08:41.604Z,0
2023-02-06T17:12:07.220Z,0
2023-02-06T17:12:48.393Z,0
2023-02-06T17:13:29.468Z,0
2023-02-06T17:14:10.588Z,0
2023-02-06T17:14:51.498Z,0
2023-02-06T17:17:50.217Z,0
2023-02-06T17:18:30.684Z,0
2023-02-06T17:19:11.164Z,0
2023-02-06T17:19:51.656Z,0
2023-02-06T17:20:32.195Z,0
2023-02-06T17:21:12.719Z,0
2023-02-06T17:21:53.210Z,0
2023-02-06T17:22:34.649Z,0
2023-02-06T17:23:15.292Z,0
2023-02-06T17:29:20.119Z,0
2023-02-06T17:30:01.028Z,0
2023-02-06T17:30:41.571Z,0
2023-02-06T17:31:22.164Z,0
2023-02-06T17:32:02.497Z,0
2023-02-06T17:33:26.420Z,0
2023-02-06T17:38:58.431Z,0
2023-02-06T17:39:39.161Z,0
2023-02-06T17:40:19.625Z,0
2023-02-06T17:41:00.131Z,0
2023-02-06T17:41:40.642Z,0
2023-02-06T17:42:21.205Z,0
2023-02-06T17:43:03.915Z,0
2023-02-06T17:43:42.304Z,0
2023-02-06T17:44:22.830Z,0
2023-02-06T17:45:03.391Z,0
2023-02-06T17:50:28.255Z,0
2023-02-06T17:51:08.769Z,0
2023-02-06T17:51:49.253Z,0
2023-02-06T17:52:29.763Z,0
2023-02-06T17:53:10.329Z,0
2023-02-06T17:53:50.815Z,0
2023-02-06T17:54:31.325Z,0
2023-02-06T18:34:10.258Z,0
2023-02-06T18:34:50.625Z,0
2023-02-06T18:35:31.141Z,0
2023-02-06T18:36:11.633Z,0
2023-02-06T18:36:52.187Z,0
2023-02-06T18:37:32.709Z,0
2023-02-06T18:38:13.227Z,0
2023-02-06T18:38:53.686Z,0
2023-02-06T18:39:34.115Z,0
2023-02-06T18:40:55.082Z,0
2023-02-06T18:47:00.062Z,0
2023-02-06T18:47:40.648Z,0
2023-02-06T18:48:21.197Z,0
2023-02-06T18:49:01.745Z,0
2023-02-06T18:49:42.224Z,0
2023-02-06T18:51:03.172Z,0
2023-02-06T18:51:43.677Z,0
2023-02-06T18:52:24.252Z,0
2023-02-06T18:53:04.777Z,0
2023-02-06T18:53:45.254Z,0
2023-02-06T18:59:49.854Z,0
2023-02-06T19:00:30.411Z,0
2023-02-06T19:01:10.857Z,0
2023-02-06T19:01:51.364Z,0
2023-02-06T19:02:31.858Z,0
2023-02-06T19:03:12.313Z,0
2023-02-06T19:03:52.827Z,0
2023-02-06T19:04:33.401Z,0
2023-02-06T19:05:13.845Z,0
2023-02-06T19:05:54.304Z,0
2023-02-06T19:06:34.837Z,0
2023-02-06T19:13:20.144Z,0
2023-02-06T19:14:00.646Z,0
2023-02-06T19:14:41.127Z,0
2023-02-06T19:15:21.661Z,0
2023-02-06T19:16:02.199Z,0
2023-02-06T19:16:42.690Z,0
2023-02-06T19:17:23.126Z,0
2023-02-06T19:18:03.603Z,0
2023-02-06T19:18:44.140Z,0
2023-02-06T19:19:24.601Z,0
2023-02-06T19:20:05.114Z,0
2023-02-06T19:26:50.189Z,0
2023-02-06T19:27:30.840Z,0
2023-02-06T19:28:11.214Z,0
2023-02-06T19:28:51.722Z,0
2023-02-06T19:29:35.845Z,0
2023-02-06T19:30:12.664Z,0
2023-02-06T19:30:53.170Z,0
2023-02-06T19:31:33.651Z,0
2023-02-06T19:32:14.132Z,0
2023-02-06T19:32:54.675Z,0
2023-02-06T19:39:40.388Z,0
2023-02-06T19:40:20.713Z,0
2023-02-06T19:41:01.202Z,0
2023-02-06T19:41:41.799Z,0
2023-02-06T19:42:22.280Z,0
2023-02-06T19:43:02.793Z,0
2023-02-06T19:43:43.286Z,0
2023-02-06T19:44:23.757Z,0
2023-02-06T19:45:04.296Z,0
2023-02-06T19:45:44.872Z,0
2023-02-06T19:52:29.988Z,0
2023-02-06T19:53:11.555Z,0
2023-02-06T19:53:51.005Z,0
2023-02-06T19:54:31.446Z,0
2023-02-06T19:55:11.914Z,0
2023-02-06T19:55:52.413Z,0
2023-02-06T19:56:32.940Z,0
2023-02-06T19:57:13.454Z,0
2023-02-06T19:57:53.932Z,0
2023-02-06T19:58:34.437Z,0
2023-02-06T19:59:14.934Z,0
2023-02-06T20:05:59.962Z,0
2023-02-06T20:06:41.410Z,0
2023-02-06T20:07:21.937Z,0
2023-02-06T20:08:42.897Z,0
2023-02-06T20:09:23.391Z,0
2023-02-06T20:10:04.677Z,0
2023-02-06T20:17:30.263Z,0
2023-02-06T20:18:10.685Z,0
2023-02-06T20:18:51.214Z,0
2023-02-06T20:19:32.271Z,0
2023-02-06T20:20:12.361Z,0
2023-02-06T20:20:52.865Z,0
2023-02-06T20:21:33.336Z,0
2023-02-06T20:22:13.855Z,0
2023-02-06T20:22:54.427Z,0
2023-02-06T20:23:34.853Z,0
2023-02-06T20:30:19.919Z,0
2023-02-06T20:31:00.510Z,0
2023-02-06T20:31:41.029Z,0
2023-02-06T20:32:21.474Z,0
2023-02-06T20:33:01.965Z,0
2023-02-06T20:33:42.504Z,0
2023-02-06T20:34:23.035Z,0
2023-02-06T20:35:03.526Z,0
2023-02-06T20:36:24.624Z,0
2023-02-06T20:37:05.096Z,0
2023-02-06T20:43:50.061Z,0
2023-02-06T20:44:30.995Z,0
2023-02-06T20:45:11.068Z,0
2023-02-06T20:45:51.670Z,0
2023-02-06T20:46:32.107Z,0
2023-02-06T20:47:12.587Z,0
2023-02-06T20:47:53.058Z,0
2023-02-06T20:48:33.517Z,0
2023-02-06T20:49:14.008Z,0
2023-02-06T20:49:54.514Z,0
2023-02-06T20:50:35.477Z,0
2023-02-06T20:57:20.048Z,0
2023-02-06T20:58:00.526Z,0
2023-02-06T20:58:41.060Z,0
2023-02-06T20:59:21.598Z,0